sensor_id;sensor_type;location;lat;lon;timestamp;P1;durP1;ratioP1;P2;durP2;ratioP2
36191;SDS011;22233;42.708;23.360;2022-10-31T00:00:45;3.63;;;1.70;;
36191;SDS011;22233;42.708;23.360;2022-10-31T00:03:10;3.17;;;1.42;;
36191;SDS011;22233;42.708;23.360;2022-10-31T00:05:36;4.78;;;1.60;;
36191;SDS011;22233;42.708;23.360;2022-10-31T00:08:06;2.25;;;1.52;;
36191;SDS011;22233;42.708;23.360;2022-10-31T00:10:31;3.30;;;1.77;;
36191;SDS011;22233;42.708;23.360;2022-10-31T00:12:57;3.47;;;1.80;;
36191;SDS011;22233;42.708;23.360;2022-10-31T00:15:22;2.95;;;1.88;;
36191;SDS011;22233;42.708;23.360;2022-10-31T00:17:47;2.20;;;1.80;;
36191;SDS011;22233;42.708;23.360;2022-10-31T00:20:13;2.58;;;1.45;;
36191;SDS011;22233;42.708;23.360;2022-10-31T00:22:38;5.72;;;1.80;;
36191;SDS011;22233;42.708;23.360;2022-10-31T00:25:04;3.00;;;2.20;;
36191;SDS011;22233;42.708;23.360;2022-10-31T00:27:29;3.15;;;1.98;;
36191;SDS011;22233;42.708;23.360;2022-10-31T00:29:54;3.28;;;1.67;;
36191;SDS011;22233;42.708;23.360;2022-10-31T00:32:20;4.47;;;1.90;;
36191;SDS011;22233;42.708;23.360;2022-10-31T00:34:45;2.67;;;1.60;;
36191;SDS011;22233;42.708;23.360;2022-10-31T00:37:11;2.85;;;1.75;;
36191;SDS011;22233;42.708;23.360;2022-10-31T00:39:36;3.17;;;1.75;;
36191;SDS011;22233;42.708;23.360;2022-10-31T00:42:01;2.60;;;1.55;;
36191;SDS011;22233;42.708;23.360;2022-10-31T00:44:27;3.88;;;1.73;;
36191;SDS011;22233;42.708;23.360;2022-10-31T00:46:52;5.18;;;2.20;;
36191;SDS011;22233;42.708;23.360;2022-10-31T00:49:17;7.63;;;2.55;;
36191;SDS011;22233;42.708;23.360;2022-10-31T00:51:43;3.65;;;2.25;;
36191;SDS011;22233;42.708;23.360;2022-10-31T00:54:08;4.05;;;2.30;;
36191;SDS011;22233;42.708;23.360;2022-10-31T00:56:34;4.60;;;2.45;;
36191;SDS011;22233;42.708;23.360;2022-10-31T00:58:59;5.95;;;2.75;;
36191;SDS011;22233;42.708;23.360;2022-10-31T01:01:24;3.08;;;2.53;;
36191;SDS011;22233;42.708;23.360;2022-10-31T01:03:50;3.28;;;2.17;;
36191;SDS011;22233;42.708;23.360;2022-10-31T01:06:15;4.65;;;2.30;;
36191;SDS011;22233;42.708;23.360;2022-10-31T01:08:41;4.38;;;2.65;;
36191;SDS011;22233;42.708;23.360;2022-10-31T01:11:17;2.58;;;2.13;;
36191;SDS011;22233;42.708;23.360;2022-10-31T01:13:45;4.88;;;2.83;;
36191;SDS011;22233;42.708;23.360;2022-10-31T01:16:12;3.78;;;2.25;;
36191;SDS011;22233;42.708;23.360;2022-10-31T01:18:40;3.53;;;2.75;;
36191;SDS011;22233;42.708;23.360;2022-10-31T01:21:07;3.72;;;2.42;;
36191;SDS011;22233;42.708;23.360;2022-10-31T01:23:34;4.85;;;2.70;;
36191;SDS011;22233;42.708;23.360;2022-10-31T01:28:25;4.43;;;2.33;;
36191;SDS011;22233;42.708;23.360;2022-10-31T01:30:51;4.15;;;2.58;;
36191;SDS011;22233;42.708;23.360;2022-10-31T01:33:16;3.95;;;2.50;;
36191;SDS011;22233;42.708;23.360;2022-10-31T01:35:41;2.83;;;2.05;;
36191;SDS011;22233;42.708;23.360;2022-10-31T01:38:07;7.63;;;3.05;;
36191;SDS011;22233;42.708;23.360;2022-10-31T01:40:32;7.57;;;3.25;;
36191;SDS011;22233;42.708;23.360;2022-10-31T01:42:57;8.25;;;3.63;;
36191;SDS011;22233;42.708;23.360;2022-10-31T01:45:23;6.20;;;3.38;;
36191;SDS011;22233;42.708;23.360;2022-10-31T01:47:48;4.38;;;3.28;;
36191;SDS011;22233;42.708;23.360;2022-10-31T01:50:28;6.03;;;3.22;;
36191;SDS011;22233;42.708;23.360;2022-10-31T01:52:59;4.43;;;3.40;;
36191;SDS011;22233;42.708;23.360;2022-10-31T01:58:07;4.93;;;2.67;;
36191;SDS011;22233;42.708;23.360;2022-10-31T02:00:37;5.88;;;3.50;;
36191;SDS011;22233;42.708;23.360;2022-10-31T02:03:03;6.90;;;4.03;;
36191;SDS011;22233;42.708;23.360;2022-10-31T02:05:29;6.18;;;3.05;;
36191;SDS011;22233;42.708;23.360;2022-10-31T02:07:57;6.20;;;2.83;;
36191;SDS011;22233;42.708;23.360;2022-10-31T02:10:27;6.10;;;3.35;;
36191;SDS011;22233;42.708;23.360;2022-10-31T02:12:56;8.75;;;3.47;;
36191;SDS011;22233;42.708;23.360;2022-10-31T02:15:24;9.52;;;4.13;;
36191;SDS011;22233;42.708;23.360;2022-10-31T02:17:50;7.57;;;4.15;;
36191;SDS011;22233;42.708;23.360;2022-10-31T02:20:16;7.78;;;3.67;;
36191;SDS011;22233;42.708;23.360;2022-10-31T02:38:36;6.05;;;3.30;;
36191;SDS011;22233;42.708;23.360;2022-10-31T02:46:48;5.75;;;3.95;;
36191;SDS011;22233;42.708;23.360;2022-10-31T02:51:52;6.30;;;3.22;;
36191;SDS011;22233;42.708;23.360;2022-10-31T02:54:19;4.47;;;2.90;;
36191;SDS011;22233;42.708;23.360;2022-10-31T02:56:47;4.63;;;3.08;;
36191;SDS011;22233;42.708;23.360;2022-10-31T02:59:16;3.22;;;2.35;;
36191;SDS011;22233;42.708;23.360;2022-10-31T03:07:18;6.22;;;2.85;;
36191;SDS011;22233;42.708;23.360;2022-10-31T03:15:30;5.78;;;2.65;;
36191;SDS011;22233;42.708;23.360;2022-10-31T03:18:09;6.60;;;3.20;;
36191;SDS011;22233;42.708;23.360;2022-10-31T03:20:55;6.97;;;3.40;;
36191;SDS011;22233;42.708;23.360;2022-10-31T03:23:32;5.30;;;3.00;;
36191;SDS011;22233;42.708;23.360;2022-10-31T03:26:00;6.03;;;3.80;;
36191;SDS011;22233;42.708;23.360;2022-10-31T03:28:30;4.65;;;2.63;;
36191;SDS011;22233;42.708;23.360;2022-10-31T03:31:02;4.65;;;2.97;;
36191;SDS011;22233;42.708;23.360;2022-10-31T03:33:30;6.80;;;3.33;;
36191;SDS011;22233;42.708;23.360;2022-10-31T03:35:59;4.35;;;2.45;;
36191;SDS011;22233;42.708;23.360;2022-10-31T03:38:29;3.47;;;2.95;;
36191;SDS011;22233;42.708;23.360;2022-10-31T03:40:56;5.15;;;2.97;;
36191;SDS011;22233;42.708;23.360;2022-10-31T03:43:28;4.07;;;2.90;;
36191;SDS011;22233;42.708;23.360;2022-10-31T03:45:57;5.40;;;3.03;;
36191;SDS011;22233;42.708;23.360;2022-10-31T03:48:23;5.22;;;2.80;;
36191;SDS011;22233;42.708;23.360;2022-10-31T03:50:57;5.70;;;3.00;;
36191;SDS011;22233;42.708;23.360;2022-10-31T03:53:34;4.38;;;2.90;;
36191;SDS011;22233;42.708;23.360;2022-10-31T03:56:27;3.15;;;2.47;;
36191;SDS011;22233;42.708;23.360;2022-10-31T03:59:14;5.28;;;3.20;;
36191;SDS011;22233;42.708;23.360;2022-10-31T04:01:44;4.30;;;2.60;;
36191;SDS011;22233;42.708;23.360;2022-10-31T04:04:15;4.90;;;3.22;;
36191;SDS011;22233;42.708;23.360;2022-10-31T04:06:41;5.75;;;3.17;;
36191;SDS011;22233;42.708;23.360;2022-10-31T04:09:09;6.18;;;3.47;;
36191;SDS011;22233;42.708;23.360;2022-10-31T04:11:36;6.38;;;3.53;;
36191;SDS011;22233;42.708;23.360;2022-10-31T04:14:08;5.03;;;3.42;;
36191;SDS011;22233;42.708;23.360;2022-10-31T04:16:33;6.78;;;2.92;;
36191;SDS011;22233;42.708;23.360;2022-10-31T04:18:59;5.60;;;3.55;;
36191;SDS011;22233;42.708;23.360;2022-10-31T04:21:27;5.38;;;3.20;;
36191;SDS011;22233;42.708;23.360;2022-10-31T04:23:54;8.10;;;3.83;;
36191;SDS011;22233;42.708;23.360;2022-10-31T04:26:19;5.13;;;3.03;;
36191;SDS011;22233;42.708;23.360;2022-10-31T04:28:45;4.90;;;2.92;;
36191;SDS011;22233;42.708;23.360;2022-10-31T04:31:11;4.60;;;3.72;;
36191;SDS011;22233;42.708;23.360;2022-10-31T04:33:36;5.60;;;3.60;;
36191;SDS011;22233;42.708;23.360;2022-10-31T04:36:02;4.80;;;3.42;;
36191;SDS011;22233;42.708;23.360;2022-10-31T04:38:28;6.30;;;3.22;;
36191;SDS011;22233;42.708;23.360;2022-10-31T04:40:53;4.75;;;3.20;;
36191;SDS011;22233;42.708;23.360;2022-10-31T04:43:19;8.65;;;3.50;;
36191;SDS011;22233;42.708;23.360;2022-10-31T04:45:44;5.50;;;3.42;;
36191;SDS011;22233;42.708;23.360;2022-10-31T04:48:09;4.70;;;2.90;;
36191;SDS011;22233;42.708;23.360;2022-10-31T04:50:35;7.57;;;3.13;;
36191;SDS011;22233;42.708;23.360;2022-10-31T04:53:00;4.60;;;2.70;;
36191;SDS011;22233;42.708;23.360;2022-10-31T04:55:26;4.40;;;3.08;;
36191;SDS011;22233;42.708;23.360;2022-10-31T04:57:51;3.83;;;2.45;;
36191;SDS011;22233;42.708;23.360;2022-10-31T05:00:17;6.22;;;2.45;;
36191;SDS011;22233;42.708;23.360;2022-10-31T05:05:14;3.80;;;2.72;;
36191;SDS011;22233;42.708;23.360;2022-10-31T05:07:41;6.10;;;3.15;;
36191;SDS011;22233;42.708;23.360;2022-10-31T05:10:08;4.63;;;3.00;;
36191;SDS011;22233;42.708;23.360;2022-10-31T05:12:37;3.95;;;3.13;;
36191;SDS011;22233;42.708;23.360;2022-10-31T05:15:10;5.57;;;2.75;;
36191;SDS011;22233;42.708;23.360;2022-10-31T05:17:35;5.30;;;3.50;;
36191;SDS011;22233;42.708;23.360;2022-10-31T05:20:00;7.63;;;3.65;;
36191;SDS011;22233;42.708;23.360;2022-10-31T05:22:26;8.48;;;3.28;;
36191;SDS011;22233;42.708;23.360;2022-10-31T05:24:51;5.28;;;3.20;;
36191;SDS011;22233;42.708;23.360;2022-10-31T05:27:16;8.32;;;3.35;;
36191;SDS011;22233;42.708;23.360;2022-10-31T05:29:42;12.95;;;3.65;;
36191;SDS011;22233;42.708;23.360;2022-10-31T05:32:07;4.10;;;2.95;;
36191;SDS011;22233;42.708;23.360;2022-10-31T05:34:33;6.28;;;3.13;;
36191;SDS011;22233;42.708;23.360;2022-10-31T05:36:58;6.28;;;3.67;;
36191;SDS011;22233;42.708;23.360;2022-10-31T05:39:23;7.13;;;3.17;;
36191;SDS011;22233;42.708;23.360;2022-10-31T05:41:49;3.92;;;2.88;;
36191;SDS011;22233;42.708;23.360;2022-10-31T05:44:14;5.60;;;3.35;;
36191;SDS011;22233;42.708;23.360;2022-10-31T05:46:39;5.78;;;3.08;;
36191;SDS011;22233;42.708;23.360;2022-10-31T05:49:05;6.78;;;3.25;;
36191;SDS011;22233;42.708;23.360;2022-10-31T05:51:31;9.52;;;3.33;;
36191;SDS011;22233;42.708;23.360;2022-10-31T05:53:56;5.53;;;3.45;;
36191;SDS011;22233;42.708;23.360;2022-10-31T05:56:21;8.52;;;4.05;;
36191;SDS011;22233;42.708;23.360;2022-10-31T05:58:47;8.55;;;3.65;;
36191;SDS011;22233;42.708;23.360;2022-10-31T06:01:12;9.98;;;3.60;;
36191;SDS011;22233;42.708;23.360;2022-10-31T06:03:37;5.82;;;3.92;;
36191;SDS011;22233;42.708;23.360;2022-10-31T06:06:03;4.47;;;3.10;;
36191;SDS011;22233;42.708;23.360;2022-10-31T06:08:28;7.47;;;3.60;;
36191;SDS011;22233;42.708;23.360;2022-10-31T06:10:54;5.80;;;3.20;;
36191;SDS011;22233;42.708;23.360;2022-10-31T06:13:19;9.23;;;3.70;;
36191;SDS011;22233;42.708;23.360;2022-10-31T06:15:44;7.43;;;4.30;;
36191;SDS011;22233;42.708;23.360;2022-10-31T06:18:10;5.63;;;4.15;;
36191;SDS011;22233;42.708;23.360;2022-10-31T06:20:35;6.75;;;3.47;;
36191;SDS011;22233;42.708;23.360;2022-10-31T06:23:01;5.80;;;3.97;;
36191;SDS011;22233;42.708;23.360;2022-10-31T06:25:27;10.55;;;4.45;;
36191;SDS011;22233;42.708;23.360;2022-10-31T06:27:53;6.50;;;4.35;;
36191;SDS011;22233;42.708;23.360;2022-10-31T06:30:19;8.85;;;4.20;;
36191;SDS011;22233;42.708;23.360;2022-10-31T06:32:45;6.80;;;3.95;;
36191;SDS011;22233;42.708;23.360;2022-10-31T06:35:10;9.30;;;4.35;;
36191;SDS011;22233;42.708;23.360;2022-10-31T06:37:36;9.05;;;4.22;;
36191;SDS011;22233;42.708;23.360;2022-10-31T06:40:02;8.20;;;4.05;;
36191;SDS011;22233;42.708;23.360;2022-10-31T06:42:28;8.07;;;4.20;;
36191;SDS011;22233;42.708;23.360;2022-10-31T06:44:53;5.38;;;3.95;;
36191;SDS011;22233;42.708;23.360;2022-10-31T06:47:19;9.48;;;4.25;;
36191;SDS011;22233;42.708;23.360;2022-10-31T06:49:44;9.63;;;5.03;;
36191;SDS011;22233;42.708;23.360;2022-10-31T06:52:09;10.27;;;4.43;;
36191;SDS011;22233;42.708;23.360;2022-10-31T06:54:35;9.15;;;5.03;;
36191;SDS011;22233;42.708;23.360;2022-10-31T06:57:00;8.38;;;4.45;;
36191;SDS011;22233;42.708;23.360;2022-10-31T06:59:26;10.38;;;5.22;;
36191;SDS011;22233;42.708;23.360;2022-10-31T07:01:51;14.45;;;5.80;;
36191;SDS011;22233;42.708;23.360;2022-10-31T07:04:16;14.30;;;6.18;;
36191;SDS011;22233;42.708;23.360;2022-10-31T07:06:42;14.30;;;7.18;;
36191;SDS011;22233;42.708;23.360;2022-10-31T07:09:07;13.75;;;7.60;;
36191;SDS011;22233;42.708;23.360;2022-10-31T07:11:33;12.75;;;7.65;;
36191;SDS011;22233;42.708;23.360;2022-10-31T07:13:58;13.60;;;7.60;;
36191;SDS011;22233;42.708;23.360;2022-10-31T07:16:23;14.88;;;6.65;;
36191;SDS011;22233;42.708;23.360;2022-10-31T07:18:49;11.88;;;7.25;;
36191;SDS011;22233;42.708;23.360;2022-10-31T07:21:15;11.90;;;6.43;;
36191;SDS011;22233;42.708;23.360;2022-10-31T07:23:40;11.90;;;6.90;;
36191;SDS011;22233;42.708;23.360;2022-10-31T07:26:05;13.68;;;7.18;;
36191;SDS011;22233;42.708;23.360;2022-10-31T07:28:31;11.77;;;6.57;;
36191;SDS011;22233;42.708;23.360;2022-10-31T07:30:57;13.40;;;7.25;;
36191;SDS011;22233;42.708;23.360;2022-10-31T07:33:23;10.48;;;5.47;;
36191;SDS011;22233;42.708;23.360;2022-10-31T07:35:51;15.57;;;7.05;;
36191;SDS011;22233;42.708;23.360;2022-10-31T07:38:17;9.57;;;6.10;;
36191;SDS011;22233;42.708;23.360;2022-10-31T07:40:42;11.10;;;5.93;;
36191;SDS011;22233;42.708;23.360;2022-10-31T07:43:10;11.25;;;6.03;;
36191;SDS011;22233;42.708;23.360;2022-10-31T07:45:36;11.25;;;5.13;;
36191;SDS011;22233;42.708;23.360;2022-10-31T07:48:01;10.23;;;6.18;;
36191;SDS011;22233;42.708;23.360;2022-10-31T07:50:28;9.68;;;6.03;;
36191;SDS011;22233;42.708;23.360;2022-10-31T07:55:28;10.93;;;5.55;;
36191;SDS011;22233;42.708;23.360;2022-10-31T07:58:02;8.48;;;5.68;;
36191;SDS011;22233;42.708;23.360;2022-10-31T08:00:32;8.40;;;4.82;;
36191;SDS011;22233;42.708;23.360;2022-10-31T08:05:25;7.53;;;4.83;;
36191;SDS011;22233;42.708;23.360;2022-10-31T08:07:51;12.20;;;6.15;;
36191;SDS011;22233;42.708;23.360;2022-10-31T08:10:16;13.02;;;6.47;;
36191;SDS011;22233;42.708;23.360;2022-10-31T08:12:42;9.90;;;6.07;;
36191;SDS011;22233;42.708;23.360;2022-10-31T08:15:07;9.93;;;6.45;;
36191;SDS011;22233;42.708;23.360;2022-10-31T08:17:37;9.02;;;4.70;;
36191;SDS011;22233;42.708;23.360;2022-10-31T08:20:03;10.98;;;5.55;;
36191;SDS011;22233;42.708;23.360;2022-10-31T08:22:29;8.82;;;4.95;;
36191;SDS011;22233;42.708;23.360;2022-10-31T08:24:55;7.57;;;5.53;;
36191;SDS011;22233;42.708;23.360;2022-10-31T08:27:20;8.07;;;4.90;;
36191;SDS011;22233;42.708;23.360;2022-10-31T08:29:46;10.65;;;5.63;;
36191;SDS011;22233;42.708;23.360;2022-10-31T08:32:11;11.20;;;5.72;;
36191;SDS011;22233;42.708;23.360;2022-10-31T08:34:37;9.05;;;5.75;;
36191;SDS011;22233;42.708;23.360;2022-10-31T08:37:03;10.73;;;5.75;;
36191;SDS011;22233;42.708;23.360;2022-10-31T08:39:28;7.93;;;5.20;;
36191;SDS011;22233;42.708;23.360;2022-10-31T08:41:53;7.82;;;5.72;;
36191;SDS011;22233;42.708;23.360;2022-10-31T08:44:19;11.18;;;5.90;;
36191;SDS011;22233;42.708;23.360;2022-10-31T08:46:44;8.25;;;4.93;;
36191;SDS011;22233;42.708;23.360;2022-10-31T08:49:10;7.47;;;4.90;;
36191;SDS011;22233;42.708;23.360;2022-10-31T08:51:35;8.02;;;5.20;;
36191;SDS011;22233;42.708;23.360;2022-10-31T08:54:00;9.23;;;5.65;;
36191;SDS011;22233;42.708;23.360;2022-10-31T08:56:26;10.35;;;6.07;;
36191;SDS011;22233;42.708;23.360;2022-10-31T08:58:52;8.18;;;4.82;;
36191;SDS011;22233;42.708;23.360;2022-10-31T09:01:18;7.47;;;5.30;;
36191;SDS011;22233;42.708;23.360;2022-10-31T09:03:44;7.85;;;4.60;;
36191;SDS011;22233;42.708;23.360;2022-10-31T09:06:09;8.18;;;4.93;;
36191;SDS011;22233;42.708;23.360;2022-10-31T09:08:35;5.35;;;3.80;;
36191;SDS011;22233;42.708;23.360;2022-10-31T09:11:01;6.43;;;4.72;;
36191;SDS011;22233;42.708;23.360;2022-10-31T09:13:27;9.00;;;4.63;;
36191;SDS011;22233;42.708;23.360;2022-10-31T09:15:52;8.95;;;5.18;;
36191;SDS011;22233;42.708;23.360;2022-10-31T09:18:19;7.68;;;4.05;;
36191;SDS011;22233;42.708;23.360;2022-10-31T09:23:12;7.93;;;4.63;;
36191;SDS011;22233;42.708;23.360;2022-10-31T09:25:46;9.13;;;5.05;;
36191;SDS011;22233;42.708;23.360;2022-10-31T09:28:13;8.40;;;4.53;;
36191;SDS011;22233;42.708;23.360;2022-10-31T09:30:40;7.13;;;4.18;;
36191;SDS011;22233;42.708;23.360;2022-10-31T09:33:07;8.57;;;4.85;;
36191;SDS011;22233;42.708;23.360;2022-10-31T09:35:35;5.88;;;4.43;;
36191;SDS011;22233;42.708;23.360;2022-10-31T09:38:05;6.05;;;4.28;;
36191;SDS011;22233;42.708;23.360;2022-10-31T09:40:41;6.00;;;4.20;;
36191;SDS011;22233;42.708;23.360;2022-10-31T09:54:01;7.53;;;4.32;;
36191;SDS011;22233;42.708;23.360;2022-10-31T09:56:33;8.75;;;4.60;;
36191;SDS011;22233;42.708;23.360;2022-10-31T09:59:01;7.10;;;4.05;;
36191;SDS011;22233;42.708;23.360;2022-10-31T10:06:44;10.88;;;4.65;;
36191;SDS011;22233;42.708;23.360;2022-10-31T10:09:13;5.85;;;4.03;;
36191;SDS011;22233;42.708;23.360;2022-10-31T10:30:13;6.55;;;3.88;;
36191;SDS011;22233;42.708;23.360;2022-10-31T10:32:57;7.90;;;3.17;;
36191;SDS011;22233;42.708;23.360;2022-10-31T10:35:29;4.15;;;3.28;;
36191;SDS011;22233;42.708;23.360;2022-10-31T10:38:01;5.72;;;2.90;;
36191;SDS011;22233;42.708;23.360;2022-10-31T10:40:38;7.65;;;3.08;;
36191;SDS011;22233;42.708;23.360;2022-10-31T10:43:23;8.65;;;3.53;;
36191;SDS011;22233;42.708;23.360;2022-10-31T10:45:50;5.72;;;3.22;;
36191;SDS011;22233;42.708;23.360;2022-10-31T10:49:06;5.00;;;2.80;;
36191;SDS011;22233;42.708;23.360;2022-10-31T10:59:30;3.78;;;2.05;;
36191;SDS011;22233;42.708;23.360;2022-10-31T11:01:56;3.20;;;2.15;;
36191;SDS011;22233;42.708;23.360;2022-10-31T11:09:26;2.80;;;2.22;;
36191;SDS011;22233;42.708;23.360;2022-10-31T11:11:51;3.10;;;1.52;;
36191;SDS011;22233;42.708;23.360;2022-10-31T11:14:18;5.82;;;2.72;;
36191;SDS011;22233;42.708;23.360;2022-10-31T11:16:46;5.30;;;2.17;;
36191;SDS011;22233;42.708;23.360;2022-10-31T11:19:20;3.10;;;2.20;;
36191;SDS011;22233;42.708;23.360;2022-10-31T11:21:48;2.75;;;1.55;;
36191;SDS011;22233;42.708;23.360;2022-10-31T11:24:15;6.97;;;1.92;;
36191;SDS011;22233;42.708;23.360;2022-10-31T11:26:43;3.75;;;1.75;;
36191;SDS011;22233;42.708;23.360;2022-10-31T11:29:12;4.80;;;2.25;;
36191;SDS011;22233;42.708;23.360;2022-10-31T11:31:40;2.80;;;1.60;;
36191;SDS011;22233;42.708;23.360;2022-10-31T11:34:12;3.60;;;1.77;;
36191;SDS011;22233;42.708;23.360;2022-10-31T11:36:52;2.90;;;1.63;;
36191;SDS011;22233;42.708;23.360;2022-10-31T11:39:21;2.70;;;1.77;;
36191;SDS011;22233;42.708;23.360;2022-10-31T11:41:49;3.50;;;2.50;;
36191;SDS011;22233;42.708;23.360;2022-10-31T11:44:20;3.53;;;1.77;;
36191;SDS011;22233;42.708;23.360;2022-10-31T11:46:58;5.78;;;4.03;;
36191;SDS011;22233;42.708;23.360;2022-10-31T11:52:00;2.78;;;1.27;;
36191;SDS011;22233;42.708;23.360;2022-10-31T11:54:57;2.80;;;1.40;;
36191;SDS011;22233;42.708;23.360;2022-10-31T11:57:25;3.08;;;1.63;;
36191;SDS011;22233;42.708;23.360;2022-10-31T12:00:00;6.90;;;1.42;;
36191;SDS011;22233;42.708;23.360;2022-10-31T12:02:28;3.92;;;1.70;;
36191;SDS011;22233;42.708;23.360;2022-10-31T12:07:19;5.47;;;1.95;;
36191;SDS011;22233;42.708;23.360;2022-10-31T12:09:45;3.83;;;1.38;;
36191;SDS011;22233;42.708;23.360;2022-10-31T12:15:20;2.90;;;1.60;;
36191;SDS011;22233;42.708;23.360;2022-10-31T12:28:41;5.45;;;2.20;;
36191;SDS011;22233;42.708;23.360;2022-10-31T12:31:46;1.50;;;1.40;;
36191;SDS011;22233;42.708;23.360;2022-10-31T12:39:34;3.40;;;1.30;;
36191;SDS011;22233;42.708;23.360;2022-10-31T12:42:12;2.03;;;1.33;;
36191;SDS011;22233;42.708;23.360;2022-10-31T12:45:14;1.50;;;1.20;;
36191;SDS011;22233;42.708;23.360;2022-10-31T12:53:42;2.65;;;1.55;;
36191;SDS011;22233;42.708;23.360;2022-10-31T12:59:01;3.60;;;1.35;;
36191;SDS011;22233;42.708;23.360;2022-10-31T13:06:55;2.47;;;1.83;;
36191;SDS011;22233;42.708;23.360;2022-10-31T13:09:32;2.47;;;1.80;;
36191;SDS011;22233;42.708;23.360;2022-10-31T13:12:06;2.15;;;1.45;;
36191;SDS011;22233;42.708;23.360;2022-10-31T13:17:14;3.63;;;1.67;;
36191;SDS011;22233;42.708;23.360;2022-10-31T13:19:47;3.13;;;1.60;;
36191;SDS011;22233;42.708;23.360;2022-10-31T13:22:17;2.55;;;1.27;;
36191;SDS011;22233;42.708;23.360;2022-10-31T13:27:42;3.40;;;1.20;;
36191;SDS011;22233;42.708;23.360;2022-10-31T13:30:15;2.65;;;1.48;;
36191;SDS011;22233;42.708;23.360;2022-10-31T13:35:40;2.80;;;1.48;;
36191;SDS011;22233;42.708;23.360;2022-10-31T13:41:12;2.88;;;1.17;;
36191;SDS011;22233;42.708;23.360;2022-10-31T13:46:46;2.88;;;1.35;;
36191;SDS011;22233;42.708;23.360;2022-10-31T13:54:35;3.88;;;1.13;;
36191;SDS011;22233;42.708;23.360;2022-10-31T13:57:06;2.72;;;1.23;;
36191;SDS011;22233;42.708;23.360;2022-10-31T13:59:32;3.75;;;2.00;;
36191;SDS011;22233;42.708;23.360;2022-10-31T14:02:11;9.18;;;2.70;;
36191;SDS011;22233;42.708;23.360;2022-10-31T14:07:43;4.45;;;1.70;;
36191;SDS011;22233;42.708;23.360;2022-10-31T14:19:00;3.67;;;1.65;;
36191;SDS011;22233;42.708;23.360;2022-10-31T14:21:31;1.90;;;1.55;;
36191;SDS011;22233;42.708;23.360;2022-10-31T14:29:43;7.85;;;1.95;;
36191;SDS011;22233;42.708;23.360;2022-10-31T14:34:41;3.90;;;1.67;;
36191;SDS011;22233;42.708;23.360;2022-10-31T14:40:07;3.25;;;1.60;;
36191;SDS011;22233;42.708;23.360;2022-10-31T14:48:42;3.65;;;1.70;;
36191;SDS011;22233;42.708;23.360;2022-10-31T14:51:48;8.40;;;5.85;;
36191;SDS011;22233;42.708;23.360;2022-10-31T14:54:14;7.05;;;3.75;;
36191;SDS011;22233;42.708;23.360;2022-10-31T14:56:49;3.75;;;2.88;;
36191;SDS011;22233;42.708;23.360;2022-10-31T14:59:19;6.03;;;2.75;;
36191;SDS011;22233;42.708;23.360;2022-10-31T15:01:55;3.60;;;2.92;;
36191;SDS011;22233;42.708;23.360;2022-10-31T15:04:23;5.03;;;3.17;;
36191;SDS011;22233;42.708;23.360;2022-10-31T15:07:00;7.10;;;2.63;;
36191;SDS011;22233;42.708;23.360;2022-10-31T15:09:35;5.15;;;2.60;;
36191;SDS011;22233;42.708;23.360;2022-10-31T15:14:49;4.20;;;3.10;;
36191;SDS011;22233;42.708;23.360;2022-10-31T15:17:15;6.22;;;3.30;;
36191;SDS011;22233;42.708;23.360;2022-10-31T15:19:41;9.75;;;3.28;;
36191;SDS011;22233;42.708;23.360;2022-10-31T15:22:13;5.45;;;3.30;;
36191;SDS011;22233;42.708;23.360;2022-10-31T15:24:41;8.15;;;3.72;;
36191;SDS011;22233;42.708;23.360;2022-10-31T15:27:17;6.70;;;3.13;;
36191;SDS011;22233;42.708;23.360;2022-10-31T15:29:49;5.03;;;3.00;;
36191;SDS011;22233;42.708;23.360;2022-10-31T15:34:48;5.95;;;3.38;;
36191;SDS011;22233;42.708;23.360;2022-10-31T15:37:16;7.38;;;3.53;;
36191;SDS011;22233;42.708;23.360;2022-10-31T15:39:47;4.07;;;2.67;;
36191;SDS011;22233;42.708;23.360;2022-10-31T15:47:35;3.60;;;2.78;;
36191;SDS011;22233;42.708;23.360;2022-10-31T15:50:02;4.35;;;2.30;;
36191;SDS011;22233;42.708;23.360;2022-10-31T15:52:39;6.50;;;2.83;;
36191;SDS011;22233;42.708;23.360;2022-10-31T15:57:39;7.13;;;2.35;;
36191;SDS011;22233;42.708;23.360;2022-10-31T16:00:20;6.93;;;3.55;;
36191;SDS011;22233;42.708;23.360;2022-10-31T16:02:49;12.65;;;5.80;;
36191;SDS011;22233;42.708;23.360;2022-10-31T16:05:15;8.82;;;4.38;;
36191;SDS011;22233;42.708;23.360;2022-10-31T16:07:49;9.50;;;3.92;;
36191;SDS011;22233;42.708;23.360;2022-10-31T16:10:23;6.00;;;3.53;;
36191;SDS011;22233;42.708;23.360;2022-10-31T16:12:50;7.20;;;3.25;;
36191;SDS011;22233;42.708;23.360;2022-10-31T16:15:16;8.93;;;3.85;;
36191;SDS011;22233;42.708;23.360;2022-10-31T16:17:45;11.05;;;5.75;;
36191;SDS011;22233;42.708;23.360;2022-10-31T16:20:32;13.07;;;5.15;;
36191;SDS011;22233;42.708;23.360;2022-10-31T16:22:58;11.35;;;5.47;;
36191;SDS011;22233;42.708;23.360;2022-10-31T16:25:28;12.95;;;5.75;;
36191;SDS011;22233;42.708;23.360;2022-10-31T16:28:01;7.95;;;4.60;;
36191;SDS011;22233;42.708;23.360;2022-10-31T16:38:52;5.32;;;3.15;;
36191;SDS011;22233;42.708;23.360;2022-10-31T16:41:21;6.03;;;2.97;;
36191;SDS011;22233;42.708;23.360;2022-10-31T16:43:48;8.77;;;4.05;;
36191;SDS011;22233;42.708;23.360;2022-10-31T16:46:21;4.05;;;2.53;;
36191;SDS011;22233;42.708;23.360;2022-10-31T16:48:49;4.32;;;2.40;;
36191;SDS011;22233;42.708;23.360;2022-10-31T16:51:14;7.22;;;3.13;;
36191;SDS011;22233;42.708;23.360;2022-10-31T16:53:40;6.25;;;3.13;;
36191;SDS011;22233;42.708;23.360;2022-10-31T16:56:05;3.40;;;3.03;;
36191;SDS011;22233;42.708;23.360;2022-10-31T16:58:40;5.35;;;4.57;;
36191;SDS011;22233;42.708;23.360;2022-10-31T17:01:06;8.98;;;4.90;;
36191;SDS011;22233;42.708;23.360;2022-10-31T17:03:33;5.72;;;4.00;;
36191;SDS011;22233;42.708;23.360;2022-10-31T17:05:58;11.20;;;5.05;;
36191;SDS011;22233;42.708;23.360;2022-10-31T17:08:24;7.93;;;3.42;;
36191;SDS011;22233;42.708;23.360;2022-10-31T17:10:56;4.95;;;3.60;;
36191;SDS011;22233;42.708;23.360;2022-10-31T17:13:24;8.82;;;3.75;;
36191;SDS011;22233;42.708;23.360;2022-10-31T17:15:55;8.18;;;4.60;;
36191;SDS011;22233;42.708;23.360;2022-10-31T17:18:22;6.82;;;4.28;;
36191;SDS011;22233;42.708;23.360;2022-10-31T17:20:48;14.35;;;5.10;;
36191;SDS011;22233;42.708;23.360;2022-10-31T17:23:15;7.30;;;4.45;;
36191;SDS011;22233;42.708;23.360;2022-10-31T17:25:41;15.70;;;5.63;;
36191;SDS011;22233;42.708;23.360;2022-10-31T17:28:12;11.95;;;5.90;;
36191;SDS011;22233;42.708;23.360;2022-10-31T17:30:38;10.93;;;4.85;;
36191;SDS011;22233;42.708;23.360;2022-10-31T17:33:05;7.28;;;4.63;;
36191;SDS011;22233;42.708;23.360;2022-10-31T17:35:31;7.80;;;3.95;;
36191;SDS011;22233;42.708;23.360;2022-10-31T17:37:56;7.85;;;3.70;;
36191;SDS011;22233;42.708;23.360;2022-10-31T17:40:22;7.55;;;4.10;;
36191;SDS011;22233;42.708;23.360;2022-10-31T17:42:48;12.38;;;4.68;;
36191;SDS011;22233;42.708;23.360;2022-10-31T17:45:18;13.85;;;6.22;;
36191;SDS011;22233;42.708;23.360;2022-10-31T17:47:46;11.88;;;5.60;;
36191;SDS011;22233;42.708;23.360;2022-10-31T17:50:12;9.38;;;4.90;;
36191;SDS011;22233;42.708;23.360;2022-10-31T17:52:39;11.93;;;4.95;;
36191;SDS011;22233;42.708;23.360;2022-10-31T17:55:04;13.48;;;6.10;;
36191;SDS011;22233;42.708;23.360;2022-10-31T17:57:34;11.40;;;6.88;;
36191;SDS011;22233;42.708;23.360;2022-10-31T18:00:01;11.18;;;6.60;;
36191;SDS011;22233;42.708;23.360;2022-10-31T18:02:28;13.18;;;6.82;;
36191;SDS011;22233;42.708;23.360;2022-10-31T18:04:54;13.15;;;6.68;;
36191;SDS011;22233;42.708;23.360;2022-10-31T18:07:19;14.85;;;7.07;;